Time;durP1;ratioP1;P1;durP2;ratioP2;P2;SDS_P1;SDS_P2;PMS_P1;PMS_P2;Temp;Humidity;BMP_temperature;BMP_pressure;BME280_temperature;BME280_humidity;BME280_pressure;Samples;Min_cycle;Max_cycle;Signal;HPM_P1;HPM_P2
2024/01/20 00:00:31;;;;;;;;;;;0.20;99.90;;;;;;5054070;28;19978;-64
2024/01/20 00:02:58;;;;;;;;;;;0.20;99.90;;;;;;5054078;28;19967;-64
2024/01/20 00:05:25;;;;;;;;;;;0.10;99.90;;;;;;5051968;28;19970;-64
2024/01/20 00:07:51;;;;;;;;;;;0.10;99.90;;;;;;5055742;28;19952;-64
2024/01/20 00:10:19;;;;;;;;;;;0.10;99.90;;;;;;5045861;28;19929;-63
2024/01/20 00:12:46;;;;;;;;;;;0.10;99.90;;;;;;5057238;28;19931;-65
2024/01/20 00:15:13;;;;;;;;;;;0.10;99.90;;;;;;5048952;28;19925;-68
2024/01/20 00:17:40;;;;;;;;;;;0.10;99.90;;;;;;5054967;28;19932;-63
2024/01/20 00:20:08;;;;;;;;;;;0.10;99.90;;;;;;5055663;28;19924;-61
2024/01/20 00:22:36;;;;;;;;;;;0.00;99.90;;;;;;5054328;28;19928;-62
2024/01/20 00:25:04;;;;;;;;;;;0.00;99.90;;;;;;5055607;28;20462;-60
2024/01/20 00:27:31;;;;;;;;;;;0.00;99.90;;;;;;5058133;28;19931;-62
2024/01/20 00:29:59;;;;;;;;;;;-0.10;99.90;;;;;;5050999;28;20366;-66
2024/01/20 00:32:26;;;;;;;;;;;-0.10;99.90;;;;;;5054084;28;19929;-61
2024/01/20 00:34:54;;;;;;;;;;;-0.10;99.90;;;;;;5052635;28;20036;-61
2024/01/20 00:37:33;;;;;;;;;;;-0.10;99.90;;;;;;5058478;28;19932;-63
2024/01/20 00:40:01;;;;;;;;;;;-0.10;99.90;;;;;;5055466;28;19932;-65
2024/01/20 00:42:28;;;;;;;;;;;-0.20;99.90;;;;;;5057092;28;19959;-64
2024/01/20 00:44:54;;;;;;;;;;;-0.20;99.90;;;;;;5055221;28;20003;-61
2024/01/20 00:47:21;;;;;;;;;;;-0.20;99.90;;;;;;5052167;28;19925;-64
2024/01/20 00:49:48;;;;;;;;;;;-0.20;99.90;;;;;;5057616;28;20275;-61
2024/01/20 00:52:15;;;;;;;;;;;-0.20;99.90;;;;;;5058377;28;19925;-64
2024/01/20 00:54:42;;;;;;;;;;;-0.20;99.90;;;;;;5055835;28;19928;-61
2024/01/20 00:57:09;;;;;;;;;;;-0.20;99.90;;;;;;5046441;28;20047;-62
2024/01/20 00:59:36;;;;;;;;;;;-0.30;99.90;;;;;;5058284;28;19975;-61
2024/01/20 01:02:03;;;;;;;;;;;-0.30;99.90;;;;;;5059234;28;19932;-63
2024/01/20 01:04:30;;;;;;;;;;;-0.20;99.90;;;;;;5054901;28;19959;-62
2024/01/20 01:06:56;;;;;;;;;;;-0.30;99.90;;;;;;5056659;28;20386;-64
2024/01/20 01:09:23;;;;;;;;;;;-0.30;99.90;;;;;;5058008;28;19930;-62
2024/01/20 01:11:50;;;;;;;;;;;-0.20;99.90;;;;;;5054073;28;20017;-62
2024/01/20 01:14:17;;;;;;;;;;;-0.20;99.90;;;;;;5054276;28;19979;-62
2024/01/20 01:16:44;;;;;;;;;;;-0.20;99.90;;;;;;5054390;28;19933;-62
2024/01/20 01:19:11;;;;;;;;;;;-0.20;99.90;;;;;;5051079;28;20027;-65
2024/01/20 01:21:37;;;;;;;;;;;-0.20;99.90;;;;;;5058245;28;19994;-61
2024/01/20 01:24:05;;;;;;;;;;;-0.20;99.90;;;;;;5045985;28;20374;-61
2024/01/20 01:26:32;;;;;;;;;;;-0.20;99.90;;;;;;5054513;28;19935;-62
2024/01/20 01:28:59;;;;;;;;;;;-0.10;99.90;;;;;;5057137;28;19986;-63
2024/01/20 01:31:26;;;;;;;;;;;-0.20;99.90;;;;;;5054733;28;19979;-61
2024/01/20 01:33:53;;;;;;;;;;;-0.10;99.90;;;;;;5055217;28;20834;-61
2024/01/20 01:36:20;;;;;;;;;;;-0.10;99.90;;;;;;5053056;28;20011;-62
2024/01/20 01:38:47;;;;;;;;;;;-0.10;99.90;;;;;;5051298;28;19935;-64
2024/01/20 01:41:14;;;;;;;;;;;-0.10;99.90;;;;;;5051425;28;19967;-62
2024/01/20 01:43:41;;;;;;;;;;;-0.10;99.90;;;;;;5047215;28;19964;-61
2024/01/20 01:46:08;;;;;;;;;;;-0.10;99.90;;;;;;5051371;28;20035;-64
2024/01/20 01:48:35;;;;;;;;;;;0.00;99.90;;;;;;5054572;28;20571;-61
2024/01/20 01:51:03;;;;;;;;;;;0.00;99.90;;;;;;5055253;28;19925;-62
2024/01/20 01:53:33;;;;;;;;;;;0.00;99.90;;;;;;5053999;28;19939;-68
2024/01/20 01:56:00;;;;;;;;;;;0.00;99.90;;;;;;5052391;28;19928;-61
2024/01/20 01:58:28;;;;;;;;;;;0.00;99.90;;;;;;5055538;28;20021;-64
2024/01/20 02:00:54;;;;;;;;;;;0.00;99.90;;;;;;5053464;28;19974;-61
2024/01/20 02:03:22;;;;;;;;;;;0.10;99.90;;;;;;5050518;28;20014;-62
2024/01/20 02:05:48;;;;;;;;;;;0.10;99.90;;;;;;5053707;28;20019;-67
2024/01/20 02:08:15;;;;;;;;;;;0.10;99.90;;;;;;5054591;28;20023;-68
2024/01/20 02:10:42;;;;;;;;;;;0.00;99.90;;;;;;5051361;28;20357;-62
2024/01/20 02:13:10;;;;;;;;;;;0.10;99.90;;;;;;5054192;28;20047;-69
2024/01/20 02:15:36;;;;;;;;;;;0.10;99.90;;;;;;5053037;28;19982;-61
2024/01/20 02:18:04;;;;;;;;;;;0.10;99.90;;;;;;5056443;28;20026;-61
2024/01/20 02:20:31;;;;;;;;;;;0.10;99.90;;;;;;5051937;28;20006;-64
2024/01/20 02:22:57;;;;;;;;;;;0.10;99.90;;;;;;5054717;28;19935;-63
2024/01/20 02:25:24;;;;;;;;;;;0.10;99.90;;;;;;5050794;28;19967;-60
2024/01/20 02:27:51;;;;;;;;;;;0.10;99.90;;;;;;5050666;28;19929;-65
2024/01/20 02:30:18;;;;;;;;;;;0.20;99.90;;;;;;5052768;28;20032;-60
2024/01/20 02:32:45;;;;;;;;;;;0.20;99.90;;;;;;5057657;28;20764;-62
2024/01/20 02:35:12;;;;;;;;;;;0.20;99.90;;;;;;5060355;28;19932;-65
2024/01/20 02:37:40;;;;;;;;;;;0.20;99.90;;;;;;5060287;28;20051;-61
2024/01/20 02:40:07;;;;;;;;;;;0.20;99.90;;;;;;5052149;28;19976;-63
2024/01/20 02:42:34;;;;;;;;;;;0.20;99.90;;;;;;5058002;28;19975;-64
2024/01/20 02:45:01;;;;;;;;;;;0.10;99.90;;;;;;5056917;28;19964;-65
2024/01/20 02:47:28;;;;;;;;;;;0.20;99.90;;;;;;5053679;28;20665;-61
2024/01/20 02:49:55;;;;;;;;;;;0.20;99.90;;;;;;5051697;28;19933;-65
2024/01/20 02:52:21;;;;;;;;;;;0.20;99.90;;;;;;5053009;28;20006;-64
2024/01/20 02:54:48;;;;;;;;;;;0.20;99.90;;;;;;5055288;28;19932;-65
2024/01/20 02:57:16;;;;;;;;;;;0.20;99.90;;;;;;5053936;28;19935;-63
2024/01/20 02:59:43;;;;;;;;;;;0.20;99.90;;;;;;5055781;28;20011;-62
2024/01/20 03:02:10;;;;;;;;;;;0.20;99.90;;;;;;5056739;28;19939;-61
2024/01/20 03:04:37;;;;;;;;;;;0.20;99.90;;;;;;5057422;28;20023;-62
2024/01/20 03:07:04;;;;;;;;;;;0.20;99.90;;;;;;5055450;28;20454;-61
2024/01/20 03:09:30;;;;;;;;;;;0.10;99.90;;;;;;5054243;28;19939;-63
2024/01/20 03:11:58;;;;;;;;;;;0.10;99.90;;;;;;5029837;28;20009;-62
2024/01/20 03:14:25;;;;;;;;;;;0.20;99.90;;;;;;5050246;28;20546;-62
2024/01/20 03:16:52;;;;;;;;;;;0.20;99.90;;;;;;5044741;28;19933;-65
2024/01/20 03:19:19;;;;;;;;;;;0.20;99.90;;;;;;5048179;28;19925;-62
2024/01/20 03:21:46;;;;;;;;;;;0.20;99.90;;;;;;5054907;28;19928;-69
2024/01/20 03:24:16;;;;;;;;;;;0.20;99.90;;;;;;5051267;28;19928;-64
2024/01/20 03:26:46;;;;;;;;;;;0.20;99.90;;;;;;5051804;28;20005;-64
2024/01/20 03:29:13;;;;;;;;;;;0.20;99.90;;;;;;5047632;28;20278;-62
2024/01/20 03:31:40;;;;;;;;;;;0.10;99.90;;;;;;5053993;28;19933;-60
2024/01/20 03:34:08;;;;;;;;;;;0.10;99.90;;;;;;5055332;28;19952;-64
2024/01/20 03:36:35;;;;;;;;;;;0.10;99.90;;;;;;5051839;28;19932;-63
2024/01/20 03:39:02;;;;;;;;;;;0.10;99.90;;;;;;5052784;28;20397;-62
2024/01/20 03:41:30;;;;;;;;;;;0.00;99.90;;;;;;5037818;28;19992;-61
2024/01/20 03:43:57;;;;;;;;;;;0.00;99.90;;;;;;5051288;28;20667;-68
2024/01/20 03:46:24;;;;;;;;;;;0.00;99.90;;;;;;5060645;28;19978;-65
2024/01/20 03:48:51;;;;;;;;;;;0.00;99.90;;;;;;5063254;28;19929;-64
2024/01/20 03:51:18;;;;;;;;;;;-0.10;99.90;;;;;;5058143;28;19964;-61
2024/01/20 03:53:45;;;;;;;;;;;-0.10;99.90;;;;;;5056259;28;20442;-64
2024/01/20 03:56:11;;;;;;;;;;;-0.10;99.90;;;;;;5057256;28;19928;-65
2024/01/20 03:58:38;;;;;;;;;;;-0.20;99.90;;;;;;5054819;28;20025;-65
2024/01/20 04:01:05;;;;;;;;;;;-0.20;99.90;;;;;;5058265;28;19925;-61
2024/01/20 04:03:32;;;;;;;;;;;-0.20;99.90;;;;;;5054434;28;19995;-64
2024/01/20 04:05:59;;;;;;;;;;;-0.30;99.90;;;;;;5061096;28;19928;-62
2024/01/20 04:08:26;;;;;;;;;;;-0.30;99.90;;;;;;5061847;28;20011;-66
2024/01/20 04:10:52;;;;;;;;;;;-0.40;99.90;;;;;;5060345;28;20398;-62
2024/01/20 04:13:19;;;;;;;;;;;-0.40;99.90;;;;;;5055644;28;22074;-63
2024/01/20 04:15:46;;;;;;;;;;;-0.50;99.90;;;;;;5058102;28;19956;-68
2024/01/20 04:18:13;;;;;;;;;;;-0.50;99.90;;;;;;5055407;28;20344;-64
2024/01/20 04:20:40;;;;;;;;;;;-0.50;99.90;;;;;;5054863;28;19935;-62
2024/01/20 04:23:06;;;;;;;;;;;-0.50;99.90;;;;;;5052981;28;20026;-62
2024/01/20 04:25:33;;;;;;;;;;;-0.50;99.90;;;;;;5051410;28;19931;-69
2024/01/20 04:28:00;;;;;;;;;;;-0.50;99.90;;;;;;5053175;28;19971;-67
2024/01/20 04:30:27;;;;;;;;;;;-0.50;99.90;;;;;;5058335;28;19924;-61
2024/01/20 04:32:54;;;;;;;;;;;-0.50;99.90;;;;;;5054916;28;19928;-64
2024/01/20 04:35:21;;;;;;;;;;;-0.50;99.90;;;;;;5054513;28;19933;-61
2024/01/20 04:37:48;;;;;;;;;;;-0.50;99.90;;;;;;5053518;28;19928;-62
2024/01/20 04:40:14;;;;;;;;;;;-0.50;99.90;;;;;;5054132;28;19960;-62
2024/01/20 04:42:41;;;;;;;;;;;-0.50;99.90;;;;;;5056968;28;19939;-62
2024/01/20 04:45:08;;;;;;;;;;;-0.50;99.90;;;;;;5053502;28;19985;-65
2024/01/20 04:47:35;;;;;;;;;;;-0.50;99.90;;;;;;5055099;28;19925;-62
2024/01/20 04:50:02;;;;;;;;;;;-0.60;99.90;;;;;;5048524;28;19924;-62
2024/01/20 04:52:29;;;;;;;;;;;-0.60;99.90;;;;;;5047534;28;19972;-61
2024/01/20 04:54:56;;;;;;;;;;;-0.50;99.90;;;;;;5062468;28;19928;-62
2024/01/20 04:57:22;;;;;;;;;;;-0.50;99.90;;;;;;5057579;28;19924;-62
2024/01/20 04:59:49;;;;;;;;;;;-0.50;99.90;;;;;;5060235;28;19925;-65
2024/01/20 05:02:16;;;;;;;;;;;-0.50;99.90;;;;;;5056540;28;20009;-60
2024/01/20 05:04:43;;;;;;;;;;;-0.50;99.90;;;;;;5053789;28;20017;-61
2024/01/20 05:07:10;;;;;;;;;;;-0.50;99.90;;;;;;5053625;28;19925;-61
2024/01/20 05:09:37;;;;;;;;;;;-0.50;99.90;;;;;;5051736;28;20006;-64
2024/01/20 05:12:04;;;;;;;;;;;-0.50;99.90;;;;;;5049804;28;19933;-62
2024/01/20 05:14:31;;;;;;;;;;;-0.50;99.90;;;;;;5051364;28;19925;-63
2024/01/20 05:16:57;;;;;;;;;;;-0.60;99.90;;;;;;5046364;28;20018;-61
2024/01/20 05:19:24;;;;;;;;;;;-0.60;99.90;;;;;;5057336;28;19979;-63
2024/01/20 05:21:51;;;;;;;;;;;-0.60;99.90;;;;;;5053697;28;19925;-70
2024/01/20 05:24:18;;;;;;;;;;;-0.60;99.90;;;;;;5051722;28;19954;-61
2024/01/20 05:26:45;;;;;;;;;;;-0.60;99.90;;;;;;5056020;28;19925;-61
2024/01/20 05:29:12;;;;;;;;;;;-0.50;99.90;;;;;;5054116;28;20381;-61
2024/01/20 05:31:38;;;;;;;;;;;-0.50;99.90;;;;;;5047311;28;19960;-62
2024/01/20 05:34:05;;;;;;;;;;;-0.60;99.90;;;;;;5051954;28;19924;-67
2024/01/20 05:36:32;;;;;;;;;;;-0.60;99.90;;;;;;5049079;28;19936;-63
2024/01/20 05:38:59;;;;;;;;;;;-0.60;99.90;;;;;;5046122;28;19928;-68
2024/01/20 05:41:26;;;;;;;;;;;-0.50;99.90;;;;;;5043155;28;20581;-62
2024/01/20 05:43:53;;;;;;;;;;;-0.60;99.90;;;;;;5056605;28;20042;-61
2024/01/20 05:46:20;;;;;;;;;;;-0.60;99.90;;;;;;5048715;28;19933;-64
2024/01/20 05:48:48;;;;;;;;;;;-0.60;99.90;;;;;;5056812;28;19924;-65
2024/01/20 05:51:15;;;;;;;;;;;-0.60;99.90;;;;;;5032904;28;19929;-62
2024/01/20 05:53:42;;;;;;;;;;;-0.60;99.90;;;;;;5055560;28;19999;-68
2024/01/20 05:56:08;;;;;;;;;;;-0.60;99.90;;;;;;5051460;28;20027;-66
2024/01/20 05:58:35;;;;;;;;;;;-0.70;99.90;;;;;;5051532;28;19960;-64
2024/01/20 06:01:02;;;;;;;;;;;-0.70;99.90;;;;;;5049088;28;19961;-63
2024/01/20 06:03:29;;;;;;;;;;;-0.70;99.90;;;;;;5052642;28;19929;-61
2024/01/20 06:05:57;;;;;;;;;;;-0.70;99.90;;;;;;5056656;28;19925;-63
2024/01/20 06:08:23;;;;;;;;;;;-0.80;99.90;;;;;;5059847;28;19925;-66
2024/01/20 06:10:51;;;;;;;;;;;-0.70;99.90;;;;;;5055964;28;19978;-67
2024/01/20 06:13:18;;;;;;;;;;;-0.80;99.90;;;;;;5051911;28;19928;-61
2024/01/20 06:15:45;;;;;;;;;;;-0.80;99.90;;;;;;5058650;28;20291;-64
2024/01/20 06:18:12;;;;;;;;;;;-0.80;99.90;;;;;;5056382;28;19928;-61
2024/01/20 06:20:39;;;;;;;;;;;-0.80;99.90;;;;;;5049775;28;20305;-63
2024/01/20 06:23:06;;;;;;;;;;;-0.80;99.90;;;;;;5050018;28;19925;-63
2024/01/20 06:25:33;;;;;;;;;;;-0.80;99.90;;;;;;5047018;28;19990;-61
2024/01/20 06:27:59;;;;;;;;;;;-0.80;99.90;;;;;;5052593;28;19933;-69
2024/01/20 06:30:26;;;;;;;;;;;-0.80;99.90;;;;;;5037789;28;19990;-67
2024/01/20 06:32:53;;;;;;;;;;;-0.80;99.90;;;;;;5053952;28;19928;-66
2024/01/20 06:35:20;;;;;;;;;;;-0.80;99.90;;;;;;5050782;28;19960;-62
2024/01/20 06:37:47;;;;;;;;;;;-0.90;99.90;;;;;;5054535;28;19925;-65
2024/01/20 06:40:14;;;;;;;;;;;-0.90;99.90;;;;;;5048251;28;20019;-64
2024/01/20 06:42:40;;;;;;;;;;;-0.90;99.90;;;;;;5052845;28;19932;-63
2024/01/20 06:45:08;;;;;;;;;;;-0.90;99.90;;;;;;5045243;28;19981;-63
2024/01/20 06:47:34;;;;;;;;;;;-0.90;99.90;;;;;;5051015;28;19959;-64
2024/01/20 06:50:02;;;;;;;;;;;-1.00;99.90;;;;;;5060817;28;19925;-64
2024/01/20 06:52:32;;;;;;;;;;;-1.10;99.90;;;;;;5056889;28;19932;-65
2024/01/20 06:54:59;;;;;;;;;;;-1.20;99.90;;;;;;5052792;28;19947;-67
2024/01/20 06:57:26;;;;;;;;;;;-1.20;99.90;;;;;;5058212;28;19932;-63
2024/01/20 06:59:54;;;;;;;;;;;-1.30;99.90;;;;;;5051159;28;20342;-62
2024/01/20 07:02:20;;;;;;;;;;;-1.30;99.90;;;;;;5057606;28;19924;-67
2024/01/20 07:04:47;;;;;;;;;;;-1.40;99.90;;;;;;5051906;28;20374;-65
2024/01/20 07:07:14;;;;;;;;;;;-1.50;99.90;;;;;;5055935;28;19932;-63
2024/01/20 07:09:41;;;;;;;;;;;-1.50;99.90;;;;;;5050547;28;19925;-63
2024/01/20 07:12:08;;;;;;;;;;;-1.60;99.90;;;;;;5059092;28;20015;-64
2024/01/20 07:14:35;;;;;;;;;;;-1.60;99.90;;;;;;5059586;28;20364;-62
2024/01/20 07:17:05;;;;;;;;;;;-1.70;99.90;;;;;;5052191;28;19963;-63
2024/01/20 07:19:32;;;;;;;;;;;-1.70;99.90;;;;;;5050231;28;19925;-64
2024/01/20 07:21:59;;;;;;;;;;;-1.80;99.90;;;;;;5059621;28;19928;-63
2024/01/20 07:24:27;;;;;;;;;;;-1.80;99.90;;;;;;5056298;28;19928;-61
2024/01/20 07:26:55;;;;;;;;;;;-1.90;99.90;;;;;;5054725;28;19935;-61
2024/01/20 07:29:22;;;;;;;;;;;-1.90;99.90;;;;;;5056346;28;19960;-66
2024/01/20 07:31:50;;;;;;;;;;;-1.90;99.90;;;;;;5052651;28;19931;-62
2024/01/20 07:34:17;;;;;;;;;;;-1.90;99.90;;;;;;5051975;28;20027;-61
2024/01/20 07:36:44;;;;;;;;;;;-1.90;99.90;;;;;;5054422;28;19929;-67
2024/01/20 07:39:11;;;;;;;;;;;-1.90;99.90;;;;;;5048939;28;20405;-64
2024/01/20 07:41:38;;;;;;;;;;;-1.90;99.90;;;;;;5053902;28;19928;-62
2024/01/20 07:44:05;;;;;;;;;;;-2.00;99.90;;;;;;5054833;28;19929;-69
2024/01/20 07:46:31;;;;;;;;;;;-2.00;99.90;;;;;;5057553;28;19932;-61
2024/01/20 07:48:58;;;;;;;;;;;-1.90;99.90;;;;;;5059669;28;19929;-65
2024/01/20 07:51:25;;;;;;;;;;;-1.90;99.90;;;;;;5057069;28;19925;-61
2024/01/20 07:53:52;;;;;;;;;;;-1.90;99.90;;;;;;5056720;28;19929;-66
2024/01/20 07:56:19;;;;;;;;;;;-2.00;99.90;;;;;;5056655;28;19991;-71
2024/01/20 07:58:46;;;;;;;;;;;-2.00;99.90;;;;;;5049997;28;19925;-61
2024/01/20 08:01:12;;;;;;;;;;;-2.00;99.90;;;;;;5058892;28;19955;-66
2024/01/20 08:03:39;;;;;;;;;;;-2.00;99.90;;;;;;5053631;28;19925;-63
2024/01/20 08:06:07;;;;;;;;;;;-1.90;99.90;;;;;;5057909;28;19925;-64
2024/01/20 08:08:34;;;;;;;;;;;-1.90;99.90;;;;;;5054215;28;19932;-62
2024/01/20 08:11:00;;;;;;;;;;;-1.90;99.90;;;;;;5060033;28;19928;-61
2024/01/20 08:13:27;;;;;;;;;;;-1.80;99.90;;;;;;5053456;28;19978;-63
2024/01/20 08:15:54;;;;;;;;;;;-1.80;99.90;;;;;;5033277;28;19924;-62
2024/01/20 08:18:21;;;;;;;;;;;-1.80;99.90;;;;;;5055684;28;20024;-61
2024/01/20 08:20:48;;;;;;;;;;;-1.70;99.90;;;;;;5052328;28;19928;-62
2024/01/20 08:23:14;;;;;;;;;;;-1.70;99.90;;;;;;5055720;28;20007;-64
2024/01/20 08:25:41;;;;;;;;;;;-1.70;99.90;;;;;;5057746;28;19960;-61
2024/01/20 08:28:08;;;;;;;;;;;-1.60;99.90;;;;;;5053179;28;19931;-64
2024/01/20 08:30:35;;;;;;;;;;;-1.60;99.90;;;;;;5055373;28;19974;-62
2024/01/20 08:33:03;;;;;;;;;;;-1.50;99.90;;;;;;5060334;28;20340;-61
2024/01/20 08:35:32;;;;;;;;;;;-1.40;99.90;;;;;;5054964;28;19933;-62
2024/01/20 08:37:59;;;;;;;;;;;-1.40;99.90;;;;;;5056318;28;19925;-66
2024/01/20 08:40:26;;;;;;;;;;;-1.30;99.90;;;;;;5052587;28;19963;-60
2024/01/20 08:42:52;;;;;;;;;;;-1.20;99.90;;;;;;5052515;28;19929;-63
2024/01/20 08:45:19;;;;;;;;;;;-1.10;99.90;;;;;;5049451;28;19971;-64
2024/01/20 08:47:46;;;;;;;;;;;-1.00;99.90;;;;;;5058222;28;19940;-61
2024/01/20 08:50:13;;;;;;;;;;;-1.00;99.90;;;;;;5057910;28;19962;-63
2024/01/20 08:52:40;;;;;;;;;;;-0.90;99.90;;;;;;5056313;28;20362;-62
2024/01/20 08:55:07;;;;;;;;;;;-0.70;99.90;;;;;;5050307;28;21449;-63
2024/01/20 08:57:34;;;;;;;;;;;-0.60;99.90;;;;;;5057006;28;19933;-64
2024/01/20 09:00:01;;;;;;;;;;;-0.60;99.90;;;;;;5054750;28;20408;-62
2024/01/20 09:02:28;;;;;;;;;;;-0.50;99.90;;;;;;5056110;28;19929;-62
2024/01/20 09:04:55;;;;;;;;;;;-0.50;99.90;;;;;;5054190;28;20351;-62
2024/01/20 09:07:22;;;;;;;;;;;-0.40;99.90;;;;;;5052186;28;20354;-66
2024/01/20 09:09:49;;;;;;;;;;;-0.40;99.90;;;;;;5051998;28;20388;-67
2024/01/20 09:12:16;;;;;;;;;;;-0.40;99.90;;;;;;5053785;28;20019;-66
2024/01/20 09:14:42;;;;;;;;;;;-0.40;99.90;;;;;;5056872;28;19935;-62
2024/01/20 09:17:10;;;;;;;;;;;-0.40;99.90;;;;;;5058000;28;20023;-62
2024/01/20 09:19:37;;;;;;;;;;;-0.30;99.90;;;;;;5051709;28;19956;-61
2024/01/20 09:22:04;;;;;;;;;;;-0.20;99.90;;;;;;5055233;28;19940;-63
2024/01/20 09:24:30;;;;;;;;;;;-0.20;99.90;;;;;;5052003;28;19928;-61
2024/01/20 09:26:57;;;;;;;;;;;-0.20;99.90;;;;;;5052846;28;19924;-67
2024/01/20 09:29:24;;;;;;;;;;;-0.10;99.90;;;;;;5052979;28;19929;-61
2024/01/20 09:31:51;;;;;;;;;;;0.00;99.90;;;;;;5050980;28;19971;-64
2024/01/20 09:34:18;;;;;;;;;;;0.00;99.90;;;;;;5047689;28;19975;-65
2024/01/20 09:36:45;;;;;;;;;;;0.10;99.90;;;;;;5056147;28;19936;-63
2024/01/20 09:39:12;;;;;;;;;;;0.20;99.90;;;;;;5055875;28;20674;-61
2024/01/20 09:41:39;;;;;;;;;;;0.30;99.90;;;;;;5057123;28;20691;-63
2024/01/20 09:44:07;;;;;;;;;;;0.40;99.90;;;;;;5054877;28;19925;-69
2024/01/20 09:46:34;;;;;;;;;;;0.40;99.90;;;;;;5053529;28;19932;-61
2024/01/20 09:49:00;;;;;;;;;;;0.40;99.90;;;;;;5056334;28;19928;-62
2024/01/20 09:51:28;;;;;;;;;;;0.40;99.90;;;;;;5036875;28;20001;-62
2024/01/20 09:53:59;;;;;;;;;;;0.40;99.90;;;;;;5052173;28;20047;-64
2024/01/20 09:56:29;;;;;;;;;;;0.40;99.90;;;;;;5047248;28;19925;-63
2024/01/20 09:58:57;;;;;;;;;;;0.40;99.90;;;;;;5058477;28;19932;-63
2024/01/20 10:01:24;;;;;;;;;;;0.40;99.90;;;;;;5060326;28;20024;-62
2024/01/20 10:03:51;;;;;;;;;;;0.40;99.90;;;;;;5050814;28;19948;-62
2024/01/20 10:06:18;;;;;;;;;;;0.50;99.90;;;;;;5054481;28;19948;-64
2024/01/20 10:08:45;;;;;;;;;;;0.40;99.90;;;;;;5050521;28;20599;-62
2024/01/20 10:11:12;;;;;;;;;;;0.40;99.90;;;;;;5053168;28;20334;-61
2024/01/20 10:13:39;;;;;;;;;;;0.40;99.90;;;;;;5049796;28;20452;-63
2024/01/20 10:16:06;;;;;;;;;;;0.40;99.90;;;;;;5052449;28;19924;-61
2024/01/20 10:18:33;;;;;;;;;;;0.40;99.90;;;;;;5048965;28;19960;-64
2024/01/20 10:21:01;;;;;;;;;;;0.40;99.90;;;;;;5051475;28;19989;-62
2024/01/20 10:23:28;;;;;;;;;;;0.50;99.90;;;;;;5047303;28;19935;-68
2024/01/20 10:25:59;;;;;;;;;;;0.50;99.90;;;;;;5051628;28;19982;-61
2024/01/20 10:28:26;;;;;;;;;;;0.40;99.90;;;;;;5051912;28;19929;-67
2024/01/20 10:30:52;;;;;;;;;;;0.50;99.90;;;;;;5055627;28;20028;-67
2024/01/20 10:33:19;;;;;;;;;;;0.50;99.90;;;;;;5055942;28;20054;-68
2024/01/20 10:35:46;;;;;;;;;;;0.50;99.90;;;;;;5048770;28;20020;-67
2024/01/20 10:38:14;;;;;;;;;;;0.50;99.90;;;;;;5050267;28;19960;-67
2024/01/20 10:40:42;;;;;;;;;;;0.50;99.90;;;;;;5044695;28;20159;-64
2024/01/20 10:43:16;;;;;;;;;;;0.50;99.90;;;;;;5036655;28;19928;-62
2024/01/20 10:45:59;;;;;;;;;;;0.50;99.90;;;;;;5051049;28;19924;-62
2024/01/20 10:48:27;;;;;;;;;;;0.50;99.90;;;;;;5055325;28;20058;-62
2024/01/20 10:50:58;;;;;;;;;;;0.40;99.90;;;;;;5055848;28;19940;-61
2024/01/20 10:53:26;;;;;;;;;;;0.50;99.90;;;;;;5056016;28;19929;-70
2024/01/20 10:55:53;;;;;;;;;;;0.50;99.90;;;;;;5053272;28;19932;-63
2024/01/20 10:58:23;;;;;;;;;;;0.50;99.90;;;;;;5054250;28;19940;-62
2024/01/20 11:00:50;;;;;;;;;;;0.60;99.90;;;;;;5050803;28;19962;-64
2024/01/20 11:03:17;;;;;;;;;;;0.70;99.90;;;;;;5053947;28;19976;-60
2024/01/20 11:05:46;;;;;;;;;;;0.70;99.90;;;;;;5049651;28;20282;-65
2024/01/20 11:08:13;;;;;;;;;;;0.70;99.90;;;;;;5053237;28;19929;-67
2024/01/20 11:10:41;;;;;;;;;;;0.70;99.90;;;;;;5052280;28;19970;-61
2024/01/20 11:13:09;;;;;;;;;;;0.80;99.90;;;;;;5044780;28;19925;-63
2024/01/20 11:15:36;;;;;;;;;;;0.80;99.90;;;;;;5059766;28;19967;-62
2024/01/20 11:18:14;;;;;;;;;;;0.90;99.90;;;;;;5051542;28;19929;-62
2024/01/20 11:20:52;;;;;;;;;;;0.80;99.90;;;;;;5051449;28;19955;-69
2024/01/20 11:23:19;;;;;;;;;;;0.80;99.90;;;;;;5049587;28;20360;-62
2024/01/20 11:25:45;;;;;;;;;;;0.80;99.90;;;;;;5051076;28;19925;-63
2024/01/20 11:28:21;;;;;;;;;;;0.90;99.90;;;;;;5048554;28;20006;-66
2024/01/20 11:30:48;;;;;;;;;;;0.80;99.90;;;;;;5045893;28;19924;-68
2024/01/20 11:33:15;;;;;;;;;;;0.90;99.90;;;;;;5054022;28;19929;-61
2024/01/20 11:35:42;;;;;;;;;;;1.00;99.90;;;;;;5053243;28;19928;-61
2024/01/20 11:38:09;;;;;;;;;;;1.00;99.90;;;;;;5046869;28;19992;-61
2024/01/20 11:40:36;;;;;;;;;;;1.00;99.90;;;;;;5049985;28;20011;-64
2024/01/20 11:43:06;;;;;;;;;;;1.00;99.90;;;;;;5053184;28;19928;-63
2024/01/20 11:45:33;;;;;;;;;;;1.10;99.90;;;;;;5050478;28;20052;-62
2024/01/20 11:48:00;;;;;;;;;;;1.00;99.90;;;;;;5054672;28;19925;-62
2024/01/20 11:50:27;;;;;;;;;;;1.10;99.90;;;;;;5056300;28;19963;-62
2024/01/20 11:52:54;;;;;;;;;;;1.10;99.90;;;;;;5053190;28;20286;-62
2024/01/20 11:55:21;;;;;;;;;;;1.10;99.90;;;;;;5059638;28;19967;-67
2024/01/20 11:57:48;;;;;;;;;;;1.00;99.90;;;;;;5061842;28;19955;-63
2024/01/20 12:00:15;;;;;;;;;;;1.00;99.90;;;;;;5060838;28;19929;-62
2024/01/20 12:02:46;;;;;;;;;;;1.00;99.90;;;;;;5052991;28;19925;-67
2024/01/20 12:05:13;;;;;;;;;;;1.00;99.90;;;;;;5052482;28;19960;-67
2024/01/20 12:07:45;;;;;;;;;;;0.90;99.90;;;;;;5053358;28;19951;-61
2024/01/20 12:10:14;;;;;;;;;;;1.00;99.90;;;;;;5053718;28;19979;-61
2024/01/20 12:12:40;;;;;;;;;;;1.00;99.90;;;;;;5056257;28;19925;-63
2024/01/20 12:15:07;;;;;;;;;;;0.90;99.90;;;;;;5054080;28;19925;-64
2024/01/20 12:17:34;;;;;;;;;;;0.90;99.90;;;;;;5051995;28;20338;-63
2024/01/20 12:20:01;;;;;;;;;;;0.80;99.90;;;;;;5053373;28;20309;-61
2024/01/20 12:22:30;;;;;;;;;;;0.70;99.90;;;;;;5061970;28;20389;-61
2024/01/20 12:24:58;;;;;;;;;;;0.60;99.90;;;;;;5056448;28;19932;-61
2024/01/20 12:27:25;;;;;;;;;;;0.60;99.90;;;;;;5055952;28;20306;-66
2024/01/20 12:29:52;;;;;;;;;;;0.60;99.90;;;;;;5057599;28;19980;-66
2024/01/20 12:32:19;;;;;;;;;;;0.60;99.90;;;;;;5056584;28;19925;-62
2024/01/20 12:34:46;;;;;;;;;;;0.70;99.90;;;;;;5057833;28;19924;-63
2024/01/20 12:37:13;;;;;;;;;;;0.80;99.90;;;;;;5056187;28;20036;-65
2024/01/20 12:39:40;;;;;;;;;;;0.90;99.90;;;;;;5053855;28;19968;-63
2024/01/20 12:42:07;;;;;;;;;;;0.90;99.90;;;;;;5053327;28;19931;-60
2024/01/20 12:44:34;;;;;;;;;;;0.90;99.90;;;;;;5058336;28;19925;-61
2024/01/20 12:47:01;;;;;;;;;;;1.00;99.90;;;;;;5051225;28;20019;-63
2024/01/20 12:49:27;;;;;;;;;;;1.00;99.90;;;;;;5057453;28;20432;-63
2024/01/20 12:51:54;;;;;;;;;;;1.10;99.90;;;;;;5054469;28;20489;-62
2024/01/20 12:54:21;;;;;;;;;;;1.10;99.90;;;;;;5057983;28;19932;-62
2024/01/20 12:56:48;;;;;;;;;;;1.20;99.90;;;;;;5056649;28;19931;-64
2024/01/20 12:59:15;;;;;;;;;;;1.20;99.90;;;;;;5054638;28;19932;-64
2024/01/20 13:01:42;;;;;;;;;;;1.20;99.90;;;;;;5056066;28;20301;-62
2024/01/20 13:04:09;;;;;;;;;;;1.10;99.90;;;;;;5051242;28;19925;-63
2024/01/20 13:06:36;;;;;;;;;;;1.00;99.90;;;;;;5048093;28;20390;-66
2024/01/20 13:09:02;;;;;;;;;;;1.00;99.90;;;;;;5055133;28;20019;-62
2024/01/20 13:11:29;;;;;;;;;;;0.90;99.90;;;;;;5058095;28;19924;-62
2024/01/20 13:13:58;;;;;;;;;;;0.80;99.90;;;;;;5060532;28;20067;-63
2024/01/20 13:16:25;;;;;;;;;;;0.80;99.90;;;;;;5056582;28;20282;-62
2024/01/20 13:18:53;;;;;;;;;;;0.80;99.90;;;;;;5060009;28;19929;-63
2024/01/20 13:21:22;;;;;;;;;;;0.80;99.90;;;;;;5053983;28;19936;-65
2024/01/20 13:23:49;;;;;;;;;;;0.80;99.90;;;;;;5052891;28;19978;-65
2024/01/20 13:26:16;;;;;;;;;;;0.70;99.90;;;;;;5054058;28;20355;-62
2024/01/20 13:28:45;;;;;;;;;;;0.70;99.90;;;;;;5046820;28;19979;-61
2024/01/20 13:31:12;;;;;;;;;;;0.80;99.90;;;;;;5056835;28;19952;-61
2024/01/20 13:33:39;;;;;;;;;;;0.80;99.90;;;;;;5057720;28;19977;-61
2024/01/20 13:36:06;;;;;;;;;;;0.80;99.90;;;;;;5058108;28;20347;-60
2024/01/20 13:38:33;;;;;;;;;;;0.80;99.90;;;;;;5053082;28;19929;-67
2024/01/20 13:40:59;;;;;;;;;;;0.80;99.90;;;;;;5054874;28;19932;-62
2024/01/20 13:43:26;;;;;;;;;;;0.80;99.90;;;;;;5058905;28;19929;-61
2024/01/20 13:45:53;;;;;;;;;;;0.90;99.90;;;;;;5051569;28;19924;-63
2024/01/20 13:48:20;;;;;;;;;;;0.90;99.90;;;;;;5052182;28;19947;-62
2024/01/20 13:50:47;;;;;;;;;;;0.90;99.90;;;;;;5054683;28;19925;-63
2024/01/20 13:53:15;;;;;;;;;;;0.90;99.90;;;;;;5051660;28;20377;-66
2024/01/20 13:55:41;;;;;;;;;;;0.90;99.90;;;;;;5048894;28;20398;-66
2024/01/20 13:58:08;;;;;;;;;;;0.90;99.90;;;;;;5053328;28;19928;-68
2024/01/20 14:00:35;;;;;;;;;;;0.90;99.90;;;;;;5050867;28;19988;-62
2024/01/20 14:03:02;;;;;;;;;;;0.90;99.90;;;;;;5057016;28;19970;-64
2024/01/20 14:05:29;;;;;;;;;;;0.90;99.90;;;;;;5053856;28;19978;-66
2024/01/20 14:07:56;;;;;;;;;;;0.90;99.90;;;;;;5053171;28;19932;-65
2024/01/20 14:10:23;;;;;;;;;;;0.90;99.90;;;;;;5052233;28;20024;-66
2024/01/20 14:12:50;;;;;;;;;;;0.90;99.90;;;;;;5051608;28;20389;-64
2024/01/20 14:15:18;;;;;;;;;;;0.80;99.90;;;;;;5054855;28;19963;-66
2024/01/20 14:17:45;;;;;;;;;;;0.80;99.90;;;;;;5055794;28;19994;-66
2024/01/20 14:20:12;;;;;;;;;;;0.80;99.90;;;;;;5053138;28;19928;-68
2024/01/20 14:22:38;;;;;;;;;;;0.70;99.90;;;;;;5054591;28;20017;-62